Airfield :
LOGIN :

Register | Disclaimer

   EN    FR    IT 

 










Legend :    VFR   Marginal VFR   IFR   Intensive IFR   Very Intensive IFR
Visi :
Ceiling :
>= 8 km
>= 3000ft
5 to 8 km
1000 to 3000 ft
1500m to 5 km
500 to 1000 ft
800 to 1500m
200 to 500 ft
< 800m
< 200 ft
Symbols :   Thunderstorms  Fog  Heavy snow  Heavy precipitations  Wind > 20 kt
SIGMETs :     Misc.  Thunderstorms  Icing  Turbulence  Mountain Waves  Volcanic Ashes







- Airport Elevation : 124 ft
- IATA code : RNS
- Download approach charts


LFRN - Rennes

CURRENT METAR :
  • 180800Z AUTO 18003KT 0450 0400 R28L/P2000 R10R/0400D FG NSC 03/03 Q1017 TEMPO BKN006 BECMG 9999 NSW

EXPIRED METARs :
  • 180730Z AUTO VRB01KT 0500 0200 R28L/0750D R10R/M0200N FG NSC 03/03 Q1017 TEMPO BKN006 BECMG 9999 NSW
  • 180700Z AUTO 04002KT 0400 0250 R28L/0800U R10R/0275N FG FEW003 04/04 Q1017 TEMPO BKN006 BECMG 9999 NSW
  • 180630Z AUTO 03001KT 0350 0250 R28L/0400N R10R/0300N FG VV/// 04/04 Q1017 TEMPO BKN006 BECMG 9999 NSW
  • 180600Z AUTO 05003KT 2300 0450 R28L/P2000 R10R/0375D BCFG NSC 04/04 Q1017 TEMPO 0800 BCFG BKN006
  • 180530Z AUTO 05002KT 2300 0750 R28L/P2000 R10R/1200U BCFG NSC 05/05 Q1017 TEMPO 0800 BCFG BKN006
  • 180500Z AUTO 04003KT 3600 1600 BR FEW006 SCT240 05/05 Q1017 BECMG 0600 FG VV///

TAF TAF LFRN
Valid from the 18 at 06:00 until the 19 at 06:00 UTC


180500Z 1806/1906 VRB03KT 4000 BR SCT006
TEMPO 1806/1808 0800 BCFG
PROB40
TEMPO 1806/1810 BKN006
BECMG 1808/1810 9999 NSW BKN015
BECMG 1812/1814 BKN020
TEMPO 1814/1820 5000 RA BKN008
TEMPO 1821/1824 3000 BR
BECMG 1900/1902 3000 BR
BECMG 1902/1904 0500 FG VV///
ATIS : +33 2 99 67 72 50
No reported NOTAMs for that airfield.



MET'MAP, your aeronautical weather chart ! - Copyright ORBIFLY December 2007 - Disclaimer

ORBIFLY MET'MAP TEAM :

Programming & Development : Alexandra Zaïnal
Concept & Development : Baudouin d'Aumeries
Co-Development & Prog : Marc-Olivier Méhu
Technical & hardware support : Manuel Goepfert

Contact : metmap@orbifly.com




SOURCES & CREDITS :

   NOAA